• Join FlightAware (Why Join?)
  • Login
  • US Flag 
01:11PM EDT


 

Airport Tracker/Info


-or-


 

Live Flight TrackerFlight Track Log ✈ SWA2182 ✈ 22-Apr-2013 ✈ KSMF - KSAN

Flight Track Log - Related Links

Times and Time Zones

All times are in EDT time to prevent confusion due to time zone crossing. See the SWA2182 flight status page for this flight to view local times or setup timezone preferences in your user account.

Time Position Orientation Groundspeed Altitude Reporting Facility
EDT Latitude Longitude Course Direction KTS MPH feet Rate Location/Type
09:09AM 38.7333 -121.6000 144° Southeast 145 167 1,800  Level Northern Cal TRACON
09:11AM 38.6281 -121.5022 144° Southeast 267 307 6,600 2,280 Climbing Oakland Center
09:12AM 38.5856 -121.4242 125° Southeast 299 344 9,300 3,000 Climbing Oakland Center
09:13AM 38.5286 -121.3003 120° Southeast 344 396 12,700 3,240 Climbing Oakland Center
09:14AM 38.4725 -121.1847 122° Southeast 378 435 15,900 3,180 Climbing Oakland Center
09:15AM 38.4158 -121.0658 121° Southeast 391 450 19,200 3,000 Climbing Oakland Center
09:16AM 38.3564 -120.9400 121° Southeast 409 471 22,000 2,640 Climbing Oakland Center
09:17AM 38.2942 -120.8119 122° Southeast 423 487 24,600 2,340 Climbing Oakland Center
09:18AM 38.2278 -120.6811 123° Southeast 436 502 26,800 2,040 Climbing Oakland Center
09:19AM 38.1286 -120.5806 141° Southeast 451 519 28,800 1,800 Climbing Oakland Center
09:20AM 38.0264 -120.4786 142° Southeast 462 532 30,500 1,860 Climbing Oakland Center
09:21AM 37.9219 -120.3778 143° Southeast 471 542 32,600 1,980 Climbing Oakland Center
09:22AM 37.8039 -120.3119 156° South 463 533 34,600 1,680 Climbing Oakland Center
09:23AM 37.6850 -120.2517 158° South 459 528 36,100 1,500 Climbing Oakland Center
09:24AM 37.5669 -120.1911 158° South 458 527 37,700 1,380 Climbing Oakland Center
09:25AM 37.4478 -120.1347 159° South 459 528 38,900 600 Climbing Oakland Center
09:26AM 37.3281 -120.0753 158° South 459 528 39,000  Climbing Oakland Center
09:27AM 37.2106 -120.0156 158° South 456 525 39,000  Level Oakland Center
09:28AM 37.0931 -119.9558 158° South 454 522 39,000  Level Oakland Center
09:29AM 36.9850 -119.9014 158° South 451 519 39,000  Level Oakland Center
09:30AM 36.8672 -119.8419 158° South 456 525 39,000  Level Oakland Center
09:31AM 36.7517 -119.7828 158° South 450 518 39,000  Level Oakland Center
09:32AM 36.6303 -119.7214 158° South 470 541 39,000  Level Oakland Center
09:34AM 36.4897 -119.6506 158° South 456 525 39,000  Level Oakland Center
09:35AM 36.3703 -119.5914 158° South 459 528 39,000  Level Oakland Center
09:36AM 36.2519 -119.5325 158° South 458 527 39,000  Level Oakland Center
09:37AM 36.1314 -119.4744 159° South 462 532 39,000  Level Oakland Center
09:38AM 36.0133 -119.4164 158° South 458 527 39,000  Level Oakland Center
09:39AM 35.8972 -119.3631 160° South 450 518 39,000  Level Oakland Center
09:40AM 35.7792 -119.3053 158° South 450 518 39,000  Level Oakland Center
09:41AM 35.6594 -119.2469 158° South 457 526 39,000  Level Oakland Center
09:42AM 35.5436 -119.1911 159° South 451 519 39,000  Level Los Angeles Center
09:43AM 35.4281 -119.1361 159° South 448 516 39,000  Level Los Angeles Center
09:44AM 35.3114 -119.0789 158° South 448 516 39,000  Level Los Angeles Center
09:45AM 35.1942 -119.0225 159° South 449 517 39,000  Level Los Angeles Center
09:46AM 35.0739 -118.9672 159° South 454 522 39,000  Level Los Angeles Center
09:47AM 34.9325 -118.9011 159° South 453 521 39,000  Level Los Angeles Center
09:48AM 34.8347 -118.8539 158° South 452 520 39,000  Level Los Angeles Center
09:49AM 34.6944 -118.7883 159° South 451 519 39,000  Level Los Angeles Center
09:50AM 34.5781 -118.7344 159° South 449 517 39,000  Level Los Angeles Center
09:51AM 34.4703 -118.6561 149° Southeast 457 526 39,000  Level Los Angeles Center
09:52AM 34.3667 -118.5689 145° Southeast 453 521 39,000  Level Los Angeles Center
09:53AM 34.2631 -118.4825 145° Southeast 452 520 39,000  Level Los Angeles Center
09:54AM 34.1575 -118.3950 146° Southeast 456 525 39,000 -60 Level Los Angeles Center
09:55AM 34.0519 -118.3069 145° Southeast 459 528 38,900 -1,680 Descending Los Angeles Center
09:56AM 33.9447 -118.2175 145° Southeast 462 532 35,600 -3,360 Descending Los Angeles Center
09:57AM 33.8328 -118.1250 146° Southeast 476 548 32,100 -3,180 Descending Los Angeles Center
09:58AM 33.7200 -118.0344 146° Southeast 479 551 29,200 -3,000 Descending Los Angeles Center
09:59AM 33.5914 -117.9292 146° Southeast 463 533 25,900 -2,760 Descending Los Angeles Center
10:00AM 33.4878 -117.8458 146° Southeast 449 517 23,500 -2,160 Descending Los Angeles Center
10:01AM 33.4008 -117.7550 139° Southeast 416 479 21,500 -2,040 Descending Los Angeles Center
10:02AM 33.3233 -117.6583 134° Southeast 404 465 19,400 -1,980 Descending Los Angeles Center
10:03AM 33.2506 -117.5661 133° Southeast 392 451 17,500 -1,980 Descending Los Angeles Center
10:04AM 33.1661 -117.4931 144° Southeast 380 437 15,400 -2,160 Descending Los Angeles Center
10:05AM 33.0833 -117.4167 142° Southeast 352 405 13,200 -2,100 Descending Southern California TRACON
10:06AM 33.0000 -117.3667 153° Southeast 346 398 11,300 -1,560 Descending Southern California TRACON
10:07AM 32.9167 -117.3000 146° Southeast 317 365 10,100 -1,320 Descending Southern California TRACON
10:08AM 32.8500 -117.2333 140° Southeast 307 353 8,700 -1,440 Descending Southern California TRACON
10:09AM 32.8000 -117.1500 126° Southeast 301 346 7,200 -1,080 Descending Southern California TRACON
10:10AM 32.7667 -117.0667 115° Southeast 271 312 6,500 -720 Descending Southern California TRACON
10:11AM 32.7500 -117.0000 107° East 240 276 5,800 -780 Descending Southern California TRACON
10:12AM 32.7000 -116.9500 140° Southeast 230 265 5,000 -960 Descending Southern California TRACON
10:13AM 32.6833 -117.0167 253° West 196 226 3,900 -1,200 Descending Southern California TRACON
10:14AM 32.7000 -117.0667 292° West 148 170 2,600 -1,200 Descending Southern California TRACON
10:15AM 32.7167 -117.1000 301° West 134 154 1,600 -960 Descending Southern California TRACON
10:16AM 32.7167 -117.1500 270° West 132 152 800 -720 Descending Southern California TRACON
10:18AM 32.7322 -117.1894 295° West 130 150 100 -600 Descending Los Angeles Center
10:20AM 32.7336 -117.1897 123° Southeast  Level Estimated